Main page
METAR-TAF:

METAR-TAF

Airports :

Hornafjörður Airport

Höfn, Iceland

latitude: 64-18N, longitude: 015-13W, elevation: 17 m

Current weather observation

The report was made 57 minutes ago, at 11:00 UTC
Wind 5 kt from the North
Temperature 1°C
Humidity 64%
Pressure 1029 hPa
Visibility 10 km or more
Few clouds at a height of 3500 ft
Few clouds at a height of 5000 ft
Broken clouds at a height of 7000 ft

METAR: BIHN 301100Z 36005KT 9999 FEW035 FEW050 BKN070 01/M05 Q1029

Time: 11:57 (11:57 UTC)

Forecast

The report was made 1 hour and 52 minutes ago, at 10:05 UTC
Forecast valid from 30 at 11 UTC to 30 at 17 UTC
Wind 13 kt from the North/Northwest
Visibility 10 km or more
Scattered clouds at a height of 5000 ft

TAF: BIHN 301005Z 3011/3017 33013KT 9999 SCT050

Weather observations and forecasts of more than 4000 airports (METAR and TAF reports).

The available stations are represented by yellow and red dots on the map.

Hover mouse over dot to see the name of the station.

Then click to see weather observations and forecasts.

To change the map : click on the green buttons with a black cross to zoom in, on the green button with a dash to zoom out, or on the green arrows for adjacent maps.


METAR-TAF: